Time;durP1;ratioP1;P1;durP2;ratioP2;P2;SDS_P1;SDS_P2;PMS_P1;PMS_P2;Temp;Humidity;BMP_temperature;BMP_pressure;BME280_temperature;BME280_humidity;BME280_pressure;Samples;Min_cycle;Max_cycle;Signal;HPM_P1;HPM_P2
2023/03/23 00:01:36;;;;;;;209.10;64.90;;;;;;;5.09;100.00;100730.00;105510;1296;25449;-75
2023/03/23 00:04:04;;;;;;;194.70;61.40;;;;;;;5.10;100.00;100726.17;105526;1296;25458;-74
2023/03/23 00:06:34;;;;;;;175.20;52.90;;;;;;;5.12;100.00;100722.25;105537;1296;25258;-74
2023/03/23 00:09:03;;;;;;;122.90;40.40;;;;;;;5.17;100.00;100725.48;105529;1296;25407;-75
2023/03/23 00:11:33;;;;;;;103.60;35.20;;;;;;;5.21;100.00;100728.75;105566;1296;25452;-75
2023/03/23 00:14:02;;;;;;;120.60;36.90;;;;;;;5.24;100.00;100729.23;105481;1296;25275;-74
2023/03/23 00:16:33;;;;;;;92.60;30.10;;;;;;;5.27;100.00;100729.65;105500;1296;26535;-75
2023/03/23 00:19:02;;;;;;;71.20;25.90;;;;;;;5.30;100.00;100733.36;105407;1296;25264;-76
2023/03/23 00:21:38;;;;;;;35.40;15.40;;;;;;;5.33;100.00;100729.18;105489;1296;26566;-74
2023/03/23 00:24:08;;;;;;;48.20;20.90;;;;;;;5.36;100.00;100725.55;105536;1297;22788;-74
2023/03/23 00:26:39;;;;;;;42.10;18.10;;;;;;;5.38;100.00;100718.14;105510;1297;22559;-75
2023/03/23 00:29:31;;;;;;;30.30;13.40;;;;;;;5.37;100.00;100705.16;104740;1296;1003237;-75
2023/03/23 00:31:59;;;;;;;24.60;11.60;;;;;;;5.35;100.00;100690.63;105485;1296;22549;-75
2023/03/23 00:34:32;;;;;;;26.80;11.30;;;;;;;5.32;100.00;100677.90;105500;1296;25538;-75
2023/03/23 00:37:00;;;;;;;26.10;11.00;;;;;;;5.33;100.00;100669.16;105529;1296;22546;-75
2023/03/23 00:39:28;;;;;;;28.10;11.30;;;;;;;5.33;100.00;100663.55;105534;1297;23927;-75
2023/03/23 00:42:00;;;;;;;23.80;10.60;;;;;;;5.36;100.00;100662.14;106455;1296;25486;-75
2023/03/23 00:44:34;;;;;;;21.90;9.70;;;;;;;5.37;100.00;100658.77;108069;1296;25487;-75
2023/03/23 00:47:09;;;;;;;22.20;10.80;;;;;;;5.40;100.00;100660.75;108430;1296;23250;-75
2023/03/23 00:49:40;;;;;;;23.30;10.30;;;;;;;5.41;100.00;100662.02;105535;1296;23935;-75
2023/03/23 00:52:09;;;;;;;21.50;9.20;;;;;;;5.41;100.00;100659.17;105526;1297;22546;-75
2023/03/23 00:54:39;;;;;;;15.80;7.70;;;;;;;5.39;100.00;100650.23;105499;1296;22660;-75
2023/03/23 00:57:06;;;;;;;19.10;9.30;;;;;;;5.36;100.00;100637.25;105506;1296;25276;-75
2023/03/23 00:59:34;;;;;;;19.80;10.30;;;;;;;5.32;100.00;100627.40;105525;1296;25367;-75
2023/03/23 01:02:02;;;;;;;21.80;10.70;;;;;;;5.25;100.00;100610.80;105505;1296;25375;-75
2023/03/23 01:04:31;;;;;;;19.80;9.90;;;;;;;5.19;100.00;100603.20;105488;1296;25313;-74
2023/03/23 01:07:00;;;;;;;20.60;9.90;;;;;;;5.13;100.00;100592.99;105495;1296;26564;-69
2023/03/23 01:09:29;;;;;;;19.90;8.90;;;;;;;5.07;100.00;100591.27;104656;1297;1003642;-70
2023/03/23 01:11:56;;;;;;;19.30;8.90;;;;;;;5.03;100.00;100586.09;105476;1296;24239;-69
2023/03/23 01:14:25;;;;;;;20.50;9.90;;;;;;;4.98;100.00;100592.88;105531;1296;25478;-69
2023/03/23 01:16:52;;;;;;;20.40;8.80;;;;;;;4.94;100.00;100605.16;105498;1296;25261;-68
2023/03/23 01:19:20;;;;;;;20.90;9.30;;;;;;;4.91;100.00;100615.39;105124;1293;26550;-68
2023/03/23 01:21:47;;;;;;;20.90;10.10;;;;;;;4.88;100.00;100629.55;105547;1296;22546;-69
2023/03/23 01:24:15;;;;;;;23.00;9.50;;;;;;;4.87;100.00;100643.41;105558;1296;25449;-69
2023/03/23 01:26:42;;;;;;;23.00;10.70;;;;;;;4.86;100.00;100654.05;105378;1296;25409;-68
2023/03/23 01:29:10;;;;;;;28.00;12.70;;;;;;;4.85;100.00;100672.84;105494;1296;25568;-68
2023/03/23 01:31:38;;;;;;;20.90;10.70;;;;;;;4.86;100.00;100686.21;105528;1296;26665;-68
2023/03/23 01:34:07;;;;;;;27.90;12.20;;;;;;;4.86;100.00;100698.69;105504;1296;25355;-68
2023/03/23 01:36:36;;;;;;;33.10;13.50;;;;;;;4.86;100.00;100711.38;105492;1296;25442;-69
2023/03/23 01:39:05;;;;;;;36.10;16.00;;;;;;;4.85;100.00;100719.68;105517;1296;22553;-69
2023/03/23 01:41:34;;;;;;;32.00;13.90;;;;;;;4.82;100.00;100725.27;105362;1296;23163;-68
2023/03/23 01:44:18;;;;;;;31.20;13.70;;;;;;;4.78;100.00;100731.09;105491;1296;25410;-69
2023/03/23 01:46:51;;;;;;;32.40;14.40;;;;;;;4.72;100.00;100729.61;105576;1296;25552;-69
2023/03/23 01:49:26;;;;;;;35.00;15.20;;;;;;;4.65;100.00;100728.84;105407;1296;25394;-68
2023/03/23 01:52:05;;;;;;;41.00;18.20;;;;;;;4.62;100.00;100735.02;105468;1296;26491;-68
2023/03/23 01:54:32;;;;;;;47.60;19.30;;;;;;;4.58;100.00;100740.30;106367;1296;22550;-68
2023/03/23 01:57:06;;;;;;;39.70;17.70;;;;;;;4.57;100.00;100746.95;105346;1296;26567;-69
2023/03/23 01:59:33;;;;;;;39.30;17.40;;;;;;;4.56;100.00;100760.44;105429;1296;22594;-69
2023/03/23 02:02:20;;;;;;;47.70;19.00;;;;;;;4.54;100.00;100774.50;105545;1296;26527;-69
2023/03/23 02:04:48;;;;;;;47.80;21.30;;;;;;;4.51;100.00;100778.83;105487;1296;22560;-73
2023/03/23 02:07:19;;;;;;;51.00;20.90;;;;;;;4.50;100.00;100784.83;105186;1296;23380;-69
2023/03/23 02:09:47;;;;;;;51.40;22.30;;;;;;;4.49;100.00;100792.73;105148;1296;25525;-70
2023/03/23 02:12:15;;;;;;;64.00;25.70;;;;;;;4.49;100.00;100808.96;105114;1296;25355;-71
2023/03/23 02:14:43;;;;;;;59.30;26.00;;;;;;;4.52;100.00;100821.65;105392;1296;25275;-70
2023/03/23 02:17:43;;;;;;;62.30;25.50;;;;;;;4.55;100.00;100839.60;105510;1296;25465;-70
2023/03/23 02:20:33;;;;;;;71.60;25.70;;;;;;;4.64;100.00;100856.14;105203;1297;25438;-69
2023/03/23 02:23:21;;;;;;;65.80;25.80;;;;;;;4.72;100.00;100858.73;105002;1297;26547;-69
2023/03/23 02:25:52;;;;;;;64.80;24.80;;;;;;;4.80;100.00;100789.38;105485;1297;25297;-69
2023/03/23 02:28:45;;;;;;;63.50;25.40;;;;;;;4.89;100.00;100830.70;105366;1297;24258;-69
2023/03/23 02:31:22;;;;;;;48.90;21.20;;;;;;;4.95;100.00;100864.69;105347;1297;26631;-69
2023/03/23 02:34:00;;;;;;;62.90;24.00;;;;;;;4.95;100.00;100883.65;105320;1297;26716;-69
2023/03/23 02:37:05;;;;;;;52.50;23.40;;;;;;;4.91;100.00;100887.31;105169;1298;25481;-70
2023/03/23 02:39:37;;;;;;;52.90;22.40;;;;;;;4.85;100.00;100884.77;104891;1297;25344;-70
2023/03/23 02:42:09;;;;;;;74.50;28.90;;;;;;;4.79;100.00;100882.71;105029;1297;22550;-69
2023/03/23 02:44:39;;;;;;;75.40;29.50;;;;;;;4.73;100.00;100880.25;105336;1297;25276;-69
2023/03/23 02:47:08;;;;;;;76.30;29.90;;;;;;;4.68;100.00;100876.73;105324;1297;26539;-70
2023/03/23 02:49:37;;;;;;;83.30;31.40;;;;;;;4.62;100.00;100874.66;105041;1297;25444;-68
2023/03/23 02:52:06;;;;;;;107.40;35.20;;;;;;;4.56;100.00;100867.58;105448;1297;22552;-69
2023/03/23 02:54:34;;;;;;;125.10;42.40;;;;;;;4.52;100.00;100870.34;105059;1297;25526;-68
2023/03/23 02:57:02;;;;;;;210.20;66.10;;;;;;;4.48;100.00;100875.13;105440;1297;25615;-69
2023/03/23 02:59:33;;;;;;;197.50;60.20;;;;;;;4.47;100.00;100886.46;105177;1297;25536;-68
2023/03/23 03:02:14;;;;;;;216.40;65.60;;;;;;;4.48;100.00;100893.70;105427;1297;25328;-68
2023/03/23 03:04:42;;;;;;;215.60;66.30;;;;;;;4.49;100.00;100898.48;105516;1296;22550;-68
2023/03/23 03:07:24;;;;;;;225.30;72.10;;;;;;;4.49;100.00;100909.32;105536;1296;25416;-69
2023/03/23 03:09:55;;;;;;;189.30;60.00;;;;;;;4.50;100.00;100918.04;105325;1296;22603;-68
2023/03/23 03:12:44;;;;;;;116.70;45.30;;;;;;;4.51;100.00;100932.89;105086;1296;25433;-69
2023/03/23 03:15:18;;;;;;;64.30;29.20;;;;;;;4.53;100.00;100945.11;107414;1296;22579;-68
2023/03/23 03:17:52;;;;;;;85.50;34.80;;;;;;;4.57;100.00;100942.17;106882;1296;25526;-68
2023/03/23 03:20:21;;;;;;;87.10;38.10;;;;;;;4.62;100.00;100924.29;104911;1296;1003806;-70
2023/03/23 03:22:52;;;;;;;81.50;32.90;;;;;;;4.67;100.00;100940.20;105103;1296;25461;-69
2023/03/23 03:25:24;;;;;;;73.60;33.10;;;;;;;4.70;100.00;100958.05;105099;1296;25449;-69
2023/03/23 03:27:52;;;;;;;59.70;28.60;;;;;;;4.72;100.00;100968.62;104925;1296;25468;-68
2023/03/23 03:30:33;;;;;;;50.00;24.80;;;;;;;4.74;100.00;100978.80;104958;1296;26661;-69
2023/03/23 03:33:03;;;;;;;54.90;28.40;;;;;;;4.77;100.00;100984.11;105221;1296;22554;-71
2023/03/23 03:35:31;;;;;;;64.30;28.50;;;;;;;4.79;100.00;100990.39;105592;1296;22770;-69
2023/03/23 03:38:05;;;;;;;83.70;33.90;;;;;;;4.77;100.00;100996.08;105513;1296;25575;-68
2023/03/23 03:40:33;;;;;;;65.60;29.70;;;;;;;4.75;100.00;100998.33;105335;1296;26741;-69
2023/03/23 03:43:01;;;;;;;64.70;31.10;;;;;;;4.79;100.00;101001.33;105324;1297;25431;-69
2023/03/23 03:45:31;;;;;;;56.60;26.90;;;;;;;4.89;100.00;101013.83;105548;1296;26567;-70
2023/03/23 03:48:00;;;;;;;52.40;24.20;;;;;;;5.01;100.00;101032.41;105486;1296;25347;-69
2023/03/23 03:50:34;;;;;;;66.90;29.90;;;;;;;5.09;100.00;101029.66;105363;1296;25534;-68
2023/03/23 03:53:02;;;;;;;86.10;36.10;;;;;;;5.16;100.00;101029.76;105349;1296;26535;-68
2023/03/23 03:55:35;;;;;;;86.50;37.20;;;;;;;5.19;100.00;101028.64;105535;1296;25439;-69
2023/03/23 03:58:04;;;;;;;94.60;40.80;;;;;;;5.20;100.00;101032.31;105523;1296;22665;-68
2023/03/23 04:00:58;;;;;;;114.70;43.70;;;;;;;5.21;100.00;101030.42;105523;1296;22558;-69
2023/03/23 04:03:32;;;;;;;144.20;52.00;;;;;;;5.23;100.00;101028.84;105401;1296;25271;-69
2023/03/23 04:06:07;;;;;;;130.20;48.60;;;;;;;5.27;100.00;101031.60;105500;1296;25453;-69
2023/03/23 04:08:37;;;;;;;169.00;57.30;;;;;;;5.29;100.00;101033.77;105420;1296;24931;-69
2023/03/23 04:11:09;;;;;;;142.00;52.30;;;;;;;5.31;100.00;101037.20;105325;1296;25400;-69
2023/03/23 04:13:39;;;;;;;155.60;50.90;;;;;;;5.34;100.00;101039.33;105481;1296;26641;-70
2023/03/23 04:16:20;;;;;;;248.80;85.10;;;;;;;5.39;100.00;101043.62;105378;1296;24282;-69
2023/03/23 04:18:49;;;;;;;490.10;172.00;;;;;;;5.45;100.00;101047.98;105507;1296;22552;-69
2023/03/23 04:21:18;;;;;;;654.20;260.40;;;;;;;5.52;100.00;101043.33;105524;1297;25535;-69
2023/03/23 04:23:49;;;;;;;989.30;406.10;;;;;;;5.61;100.00;101044.84;105516;1296;25378;-68
2023/03/23 04:26:18;;;;;;;958.70;407.60;;;;;;;5.69;100.00;101050.34;105344;1296;25419;-70
2023/03/23 04:28:50;;;;;;;743.50;314.10;;;;;;;5.74;100.00;101054.30;105521;1296;25442;-68
2023/03/23 04:31:45;;;;;;;431.40;155.50;;;;;;;5.80;100.00;101058.62;105193;1296;25271;-69
2023/03/23 04:34:22;;;;;;;259.30;94.20;;;;;;;5.85;100.00;101063.62;105592;1296;25453;-69
2023/03/23 04:36:50;;;;;;;198.90;72.20;;;;;;;5.89;100.00;101070.83;105484;1297;24285;-69
2023/03/23 04:39:23;;;;;;;138.30;53.20;;;;;;;5.95;100.00;101070.98;105278;1296;25494;-69
2023/03/23 04:42:01;;;;;;;115.20;44.70;;;;;;;6.02;100.00;101073.52;105501;1296;25382;-69
2023/03/23 04:44:53;;;;;;;94.10;37.90;;;;;;;6.09;100.00;101073.65;105472;1296;25332;-69
2023/03/23 04:47:29;;;;;;;127.10;45.70;;;;;;;6.17;100.00;101072.92;105359;1297;26070;-70
2023/03/23 04:50:01;;;;;;;68.60;31.00;;;;;;;6.24;100.00;101078.94;105435;1296;25531;-70
2023/03/23 04:52:37;;;;;;;84.70;35.70;;;;;;;6.35;100.00;101077.26;105332;1296;26770;-69
2023/03/23 04:55:06;;;;;;;101.40;39.60;;;;;;;6.44;100.00;101069.73;105551;1296;25585;-71
2023/03/23 04:57:35;;;;;;;100.30;40.70;;;;;;;6.52;100.00;101071.80;105438;1297;25492;-69
2023/03/23 05:00:38;;;;;;;86.90;37.00;;;;;;;6.58;100.00;101065.06;104538;1304;25395;-69
2023/03/23 05:03:07;;;;;;;99.90;40.00;;;;;;;6.57;100.00;100828.11;105353;1296;25430;-68
2023/03/23 05:05:35;;;;;;;82.70;34.00;;;;;;;6.55;100.00;100625.02;104847;1297;1003549;-69
2023/03/23 05:08:07;;;;;;;161.90;50.80;;;;;;;6.55;100.00;100581.11;105503;1296;25382;-69
2023/03/23 05:10:37;;;;;;;96.20;36.90;;;;;;;6.59;100.00;100547.75;105562;1296;25395;-69
2023/03/23 05:13:14;;;;;;;73.80;30.50;;;;;;;6.69;100.00;100531.17;105580;1296;25341;-69
2023/03/23 05:15:43;;;;;;;66.30;30.30;;;;;;;6.78;100.00;100517.29;105090;1296;26661;-69
2023/03/23 05:18:11;;;;;;;131.10;52.40;;;;;;;6.89;100.00;100493.80;105371;1296;24107;-70
2023/03/23 05:20:46;;;;;;;133.10;59.30;;;;;;;7.03;100.00;100473.33;105269;1296;26662;-69
2023/03/23 05:23:20;;;;;;;163.70;67.00;;;;;;;7.21;100.00;100452.56;105627;1296;25451;-69
2023/03/23 05:25:55;;;;;;;92.60;38.70;;;;;;;7.39;100.00;100423.61;105542;1296;22798;-69
2023/03/23 05:28:30;;;;;;;56.20;27.60;;;;;;;7.57;100.00;100375.34;105441;1296;27151;-69
2023/03/23 05:31:09;;;;;;;50.00;25.00;;;;;;;7.74;100.00;100329.81;105462;1296;25455;-70
2023/03/23 05:33:43;;;;;;;44.00;22.40;;;;;;;7.91;100.00;100402.43;105551;1296;24233;-69
2023/03/23 05:36:30;;;;;;;51.70;24.00;;;;;;;8.13;100.00;100357.85;105300;1296;22539;-69
2023/03/23 05:39:17;;;;;;;44.30;23.00;;;;;;;8.33;100.00;100290.13;105531;1296;22667;-68
2023/03/23 05:42:04;;;;;;;60.40;26.50;;;;;;;8.55;100.00;100227.00;105387;1296;25329;-72
2023/03/23 05:44:41;;;;;;;53.60;27.00;;;;;;;8.75;100.00;100199.78;105488;1296;23811;-69
2023/03/23 05:47:10;;;;;;;48.30;24.00;;;;;;;8.95;100.00;100163.23;105296;1296;26992;-70
2023/03/23 05:49:39;;;;;;;51.40;24.90;;;;;;;9.15;100.00;100103.48;106957;1296;22561;-69
2023/03/23 05:52:11;;;;;;;42.60;22.50;;;;;;;9.35;100.00;100039.27;107390;1296;25583;-70
2023/03/23 05:54:41;;;;;;;37.70;20.60;;;;;;;9.57;100.00;100015.00;105437;1296;24063;-69
2023/03/23 05:57:11;;;;;;;34.70;19.10;;;;;;;9.78;100.00;99947.03;105586;1296;25533;-68
2023/03/23 05:59:45;;;;;;;33.70;18.00;;;;;;;9.99;100.00;99873.83;105572;1296;22681;-69
2023/03/23 06:02:18;;;;;;;39.10;21.00;;;;;;;10.18;100.00;99795.49;105593;1296;22540;-69
2023/03/23 06:04:45;;;;;;;60.20;25.60;;;;;;;10.37;100.00;99763.11;105393;1296;25484;-67
2023/03/23 06:07:21;;;;;;;42.20;21.50;;;;;;;10.60;100.00;99737.14;105244;1297;221010;-66
2023/03/23 06:09:55;;;;;;;37.50;20.40;;;;;;;10.81;100.00;99706.64;105367;1297;25401;-66
2023/03/23 06:12:29;;;;;;;37.50;19.00;;;;;;;10.99;100.00;99680.17;105189;1296;26590;-67
2023/03/23 06:15:12;;;;;;;34.30;17.50;;;;;;;11.18;100.00;99649.98;105514;1296;22561;-67
2023/03/23 06:18:05;;;;;;;30.50;16.90;;;;;;;11.39;100.00;99634.23;105400;1296;25395;-67
2023/03/23 06:20:48;;;;;;;31.60;17.10;;;;;;;11.58;100.00;99619.42;105137;1296;25494;-66
2023/03/23 06:23:24;;;;;;;34.90;17.90;;;;;;;11.75;100.00;99594.80;105372;1296;24260;-67
2023/03/23 06:26:00;;;;;;;34.80;17.00;;;;;;;11.90;100.00;99571.63;105267;1296;26678;-67
2023/03/23 06:28:28;;;;;;;39.20;18.70;;;;;;;12.06;100.00;99551.13;105412;1296;25332;-68
2023/03/23 06:31:00;;;;;;;33.10;19.10;;;;;;;12.21;100.00;99534.63;105606;1296;26422;-68
2023/03/23 06:33:28;;;;;;;88.70;42.70;;;;;;;12.36;100.00;99526.90;105533;1296;24251;-67
2023/03/23 06:36:18;;;;;;;40.50;25.60;;;;;;;12.54;100.00;99514.86;105231;1296;22814;-69
2023/03/23 06:38:51;;;;;;;32.80;18.70;;;;;;;12.70;100.00;99500.00;105456;1288;25440;-67
2023/03/23 06:41:23;;;;;;;34.10;18.40;;;;;;;12.85;100.00;99498.96;105399;1296;26655;-67
2023/03/23 06:43:53;;;;;;;34.40;16.70;;;;;;;12.99;100.00;99502.02;105364;1296;22549;-70
2023/03/23 06:46:27;;;;;;;26.40;15.60;;;;;;;13.08;100.00;99510.02;105633;1296;24883;-67
2023/03/23 06:48:54;;;;;;;27.70;14.20;;;;;;;13.14;100.00;99509.87;105527;1296;22577;-68
2023/03/23 06:51:28;;;;;;;27.90;16.10;;;;;;;13.21;100.00;99511.85;105305;1296;22545;-66
2023/03/23 06:53:57;;;;;;;34.90;19.60;;;;;;;13.28;100.00;99519.76;105307;1296;25430;-69
2023/03/23 06:56:30;;;;;;;;;;;;;;;13.38;100.00;99521.70;105400;1296;26774;-69
2023/03/23 06:58:58;;;;;;;28.60;16.00;;;;;;;13.55;100.00;99517.27;105060;1296;25369;-69
2023/03/23 07:01:27;;;;;;;27.60;15.60;;;;;;;13.77;100.00;99516.95;105397;1296;25518;-68
2023/03/23 07:04:00;;;;;;;32.10;15.70;;;;;;;14.02;100.00;99516.56;105582;1296;25286;-68
2023/03/23 07:06:41;;;;;;;33.70;16.40;;;;;;;14.25;100.00;99510.48;105734;1296;26542;-70
2023/03/23 07:09:09;;;;;;;37.10;17.30;;;;;;;14.47;100.00;99505.44;105280;1296;23883;-69
2023/03/23 07:11:37;;;;;;;33.90;18.00;;;;;;;14.65;100.00;99501.81;105361;1296;23748;-68
2023/03/23 07:14:11;;;;;;;35.10;17.00;;;;;;;14.83;100.00;99501.79;105488;1296;22558;-70
2023/03/23 07:16:42;;;;;;;37.10;18.00;;;;;;;14.96;100.00;99503.18;105393;1296;25388;-68
2023/03/23 07:19:10;;;;;;;39.30;17.70;;;;;;;15.11;100.00;99504.45;105577;1296;25327;-69
2023/03/23 07:21:37;;;;;;;35.70;16.70;;;;;;;15.27;100.00;99500.70;105628;1296;22502;-70
2023/03/23 07:24:05;;;;;;;39.40;16.80;;;;;;;15.48;100.00;99495.59;105334;1296;24524;-67
2023/03/23 07:26:56;;;;;;;34.00;16.60;;;;;;;15.74;100.00;99491.04;105235;1296;22574;-67
2023/03/23 07:29:26;;;;;;;31.50;16.30;;;;;;;15.99;100.00;99484.73;105582;1296;23186;-66
2023/03/23 07:32:05;;;;;;;33.50;15.50;;;;;;;16.26;100.00;99473.68;105695;1296;25406;-64
2023/03/23 07:34:33;;;;;;;31.10;15.70;;;;;;;16.52;100.00;99467.48;105406;1289;23375;-67
2023/03/23 07:37:12;;;;;;;31.70;15.70;;;;;;;16.81;100.00;99451.81;105366;1296;26527;-73
2023/03/23 07:39:41;;;;;;;40.40;20.90;;;;;;;17.09;100.00;99452.44;105618;1296;22549;-69
2023/03/23 07:42:10;;;;;;;34.80;18.70;;;;;;;17.37;100.00;99455.42;105557;1293;22552;-68
2023/03/23 07:44:57;;;;;;;29.90;17.10;;;;;;;17.57;100.00;99471.56;105553;1290;22488;-76
2023/03/23 07:47:31;;;;;;;40.10;21.10;;;;;;;17.62;100.00;99501.90;105199;1293;26535;-71
2023/03/23 07:50:00;;;;;;;39.50;20.30;;;;;;;17.72;100.00;99510.73;104858;1296;25514;-70
2023/03/23 07:52:33;;;;;;;39.30;20.10;;;;;;;17.91;100.00;99533.77;105620;1289;25559;-68
2023/03/23 07:55:02;;;;;;;35.40;18.90;;;;;;;18.06;100.00;99573.21;105399;1295;22577;-70
2023/03/23 07:57:39;;;;;;;26.00;14.20;;;;;;;18.10;100.00;99639.98;105481;1290;25520;-68
2023/03/23 08:00:19;;;;;;;27.50;13.70;;;;;;;18.09;100.00;99646.04;105515;1281;24231;-70
2023/03/23 08:02:58;;;;;;;26.80;12.90;;;;;;;18.13;100.00;99685.91;105429;1289;22656;-68
2023/03/23 08:05:49;;;;;;;22.40;11.30;;;;;;;18.31;100.00;99759.46;105334;1290;22545;-67
2023/03/23 08:08:54;;;;;;;20.40;10.70;;;;;;;18.42;100.00;99862.30;105262;1289;25527;-68
2023/03/23 08:11:40;;;;;;;22.00;10.90;;;;;;;18.63;100.00;99910.94;105721;1290;22559;-77
2023/03/23 08:14:28;;;;;;;27.00;12.50;;;;;;;18.78;100.00;99970.61;105662;1290;25302;-79
2023/03/23 08:17:02;;;;;;;23.70;11.60;;;;;;;18.99;100.00;100026.90;106136;1293;22649;-82
2023/03/23 08:19:38;;;;;;;28.80;12.40;;;;;;;19.24;100.00;100092.12;105795;1296;23349;-81
2023/03/23 08:22:35;;;;;;;26.30;15.00;;;;;;;19.49;100.00;100138.88;105061;1292;25459;-77
2023/03/23 08:25:32;;;;;;;23.90;11.70;;;;;;;19.70;100.00;100154.94;105120;1297;25579;-69
2023/03/23 08:28:20;;;;;;;22.90;10.20;;;;;;;19.95;100.00;100174.68;105294;1292;26640;-69
2023/03/23 08:31:13;;;;;;;36.00;19.40;;;;;;;20.17;100.00;100192.48;105593;1297;24235;-80
2023/03/23 08:34:05;;;;;;;23.40;12.40;;;;;;;20.19;100.00;100205.29;105744;1292;25367;-80
2023/03/23 08:36:33;;;;;;;22.10;11.40;;;;;;;20.18;100.00;100204.88;105718;1291;22579;-79
2023/03/23 08:39:27;;;;;;;19.60;9.60;;;;;;;20.21;100.00;100192.44;107413;1297;22565;-76
2023/03/23 08:42:07;;;;;;;27.70;12.40;;;;;;;20.36;100.00;100184.34;106817;1292;22582;-78
2023/03/23 08:45:07;;;;;;;25.70;14.10;;;;;;;20.58;100.00;100174.86;105381;1297;25628;-78
2023/03/23 08:48:07;;;;;;;54.70;31.90;;;;;;;20.78;100.00;100170.45;105107;1295;22552;-78
2023/03/23 08:50:35;;;;;;;35.70;18.20;;;;;;;20.88;100.00;100168.52;105356;1289;22608;-79
2023/03/23 08:53:08;;;;;;;60.10;34.60;;;;;;;20.95;100.00;100163.19;105658;1292;26064;-81
2023/03/23 08:56:07;;;;;;;26.60;15.30;;;;;;;20.99;100.00;100148.34;105362;1290;22859;-80
2023/03/23 08:58:43;;;;;;;76.00;43.40;;;;;;;21.00;100.00;100146.76;105556;1292;22557;-70
2023/03/23 09:01:22;;;;;;;26.60;13.70;;;;;;;21.08;100.00;100142.02;105448;1289;23050;-75
2023/03/23 09:03:56;;;;;;;28.40;11.50;;;;;;;21.23;100.00;100138.24;105892;1275;22494;-81
2023/03/23 09:06:27;;;;;;;20.80;9.00;;;;;;;21.32;100.00;100139.77;105644;1289;25469;-75
2023/03/23 09:08:55;;;;;;;18.10;8.30;;;;;;;21.34;100.00;100143.17;105567;1289;25503;-76
2023/03/23 09:11:23;;;;;;;22.40;10.70;;;;;;;21.37;100.00;100142.52;105423;1292;22583;-77
2023/03/23 09:13:51;;;;;;;25.60;12.30;;;;;;;21.41;100.00;100147.84;105737;1291;25503;-71
2023/03/23 09:16:23;;;;;;;24.20;10.40;;;;;;;21.49;100.00;100147.39;105272;1291;25391;-72
2023/03/23 09:18:51;;;;;;;22.10;10.30;;;;;;;21.55;100.00;100147.70;105279;1295;24257;-70
2023/03/23 09:21:19;;;;;;;20.60;9.40;;;;;;;21.59;100.00;100148.89;105559;1295;22536;-69
2023/03/23 09:23:48;;;;;;;24.90;11.60;;;;;;;21.57;100.00;100148.80;105481;1296;25429;-69
2023/03/23 09:26:16;;;;;;;24.30;10.20;;;;;;;21.57;100.00;100143.30;105484;1292;25502;-69
2023/03/23 09:28:44;;;;;;;21.20;8.50;;;;;;;21.65;100.00;100138.39;105540;1289;23680;-67
2023/03/23 09:31:12;;;;;;;23.30;9.20;;;;;;;21.62;100.00;100137.67;105656;1295;25374;-73
2023/03/23 09:33:40;;;;;;;24.00;8.80;;;;;;;21.48;100.00;100140.23;105462;1296;25562;-71
2023/03/23 09:36:14;;;;;;;28.60;9.20;;;;;;;21.58;100.00;100134.61;106059;1296;25450;-77
2023/03/23 09:38:45;;;;;;;20.00;8.00;;;;;;;21.73;100.00;100126.27;105946;1289;25484;-69
2023/03/23 09:41:25;;;;;;;23.90;7.70;;;;;;;21.82;100.00;100126.21;105536;1289;22546;-73
2023/03/23 09:43:53;;;;;;;16.40;7.00;;;;;;;21.86;100.00;100125.11;105758;1290;26687;-81
2023/03/23 09:46:31;;;;;;;18.70;8.50;;;;;;;21.88;100.00;100119.94;106437;1289;24419;-79
2023/03/23 09:49:07;;;;;;;16.70;8.40;;;;;;;21.83;100.00;100116.16;105852;1289;26553;-80
2023/03/23 09:51:45;;;;;;;21.80;8.90;;;;;;;21.41;100.00;100123.91;105817;1289;26553;-80
2023/03/23 09:54:36;;;;;;;30.70;10.40;;;;;;;21.08;100.00;100129.41;106111;1292;22672;-85
2023/03/23 09:57:05;;;;;;;34.50;18.70;;;;;;;20.85;100.00;100131.19;106135;1289;22562;-82
2023/03/23 09:59:58;;;;;;;31.50;17.80;;;;;;;20.76;100.00;100127.91;105788;1287;22553;-79
2023/03/23 10:03:02;;;;;;;29.90;19.40;;;;;;;20.71;100.00;100126.68;107407;1289;22584;-76
2023/03/23 10:06:00;;;;;;;19.70;9.30;;;;;;;21.12;100.00;100118.68;105271;1296;22638;-74
2023/03/23 10:08:31;;;;;;;19.10;8.50;;;;;;;21.48;100.00;100111.04;106252;1296;22574;-79
2023/03/23 10:11:03;;;;;;;20.10;8.60;;;;;;;21.76;100.00;100107.58;106102;1289;22665;-77
2023/03/23 10:13:44;;;;;;;16.10;8.10;;;;;;;21.96;100.00;100108.86;105485;1296;25592;-70
2023/03/23 10:16:36;;;;;;;21.10;9.30;;;;;;;21.79;100.00;100109.89;105716;1289;25451;-81
2023/03/23 10:19:11;;;;;;;24.20;9.70;;;;;;;21.22;100.00;100115.78;106006;1288;26798;-81
2023/03/23 10:21:46;;;;;;;20.60;8.90;;;;;;;20.65;100.00;100122.35;105479;1289;25390;-75
2023/03/23 10:24:17;;;;;;;23.50;9.70;;;;;;;20.03;100.00;100126.23;105642;1289;25454;-72
2023/03/23 10:27:14;;;;;;;24.00;10.40;;;;;;;19.60;100.00;100128.59;105656;1297;23840;-83
2023/03/23 10:29:47;;;;;;;21.20;11.30;;;;;;;19.24;100.00;100131.31;105448;1293;22955;-72
2023/03/23 10:32:17;;;;;;;22.30;9.50;;;;;;;18.98;100.00;100133.73;105507;1292;24305;-67
2023/03/23 10:34:49;;;;;;;;;;;;;;;18.92;100.00;100127.88;105428;1296;24340;-71
2023/03/23 10:37:24;;;;;;;19.40;8.00;;;;;;;19.14;100.00;100122.73;105656;1295;25359;-69
2023/03/23 10:39:59;;;;;;;20.70;8.20;;;;;;;19.60;100.00;100111.09;105580;1290;23443;-70
2023/03/23 10:42:31;;;;;;;22.50;9.70;;;;;;;20.17;100.00;100096.91;105595;1290;25474;-70
2023/03/23 10:45:22;;;;;;;42.70;23.10;;;;;;;20.68;100.00;100091.13;105311;1287;23702;-76
2023/03/23 10:48:09;;;;;;;23.10;10.80;;;;;;;21.05;100.00;100081.73;105402;1291;22548;-81
2023/03/23 10:50:38;;;;;;;25.20;11.00;;;;;;;21.48;100.00;100077.98;105756;1289;22545;-77
2023/03/23 10:53:32;;;;;;;18.10;9.00;;;;;;;21.81;100.00;100068.94;105450;1296;25098;-76
2023/03/23 10:56:01;;;;;;;26.80;10.10;;;;;;;22.21;100.00;100060.86;105633;1296;26734;-76
2023/03/23 10:58:35;;;;;;;19.10;9.40;;;;;;;22.56;100.00;100058.56;105626;1296;23319;-69
2023/03/23 11:01:04;;;;;;;21.10;9.60;;;;;;;22.82;100.00;100050.42;105571;1293;25381;-69
2023/03/23 11:03:42;;;;;;;28.20;14.10;;;;;;;22.83;100.00;100048.89;105411;1296;26875;-66
2023/03/23 11:06:11;;;;;;;25.30;12.90;;;;;;;22.82;100.00;100047.83;105658;1293;22571;-78
2023/03/23 11:08:53;;;;;;;26.80;11.00;;;;;;;22.85;100.00;100043.02;105321;1296;22567;-77
2023/03/23 11:11:32;;;;;;;19.00;9.30;;;;;;;22.94;100.00;100039.69;105516;1290;25421;-74
2023/03/23 11:14:38;;;;;;;21.20;9.30;;;;;;;23.07;100.00;100034.88;105801;1296;25413;-74
2023/03/23 11:17:20;;;;;;;22.50;10.80;;;;;;;23.21;100.00;100040.11;105667;1287;26220;-75
2023/03/23 11:19:48;;;;;;;19.20;8.40;;;;;;;23.26;100.00;100037.14;105885;1295;25372;-77
2023/03/23 11:22:23;;;;;;;23.10;11.30;;;;;;;23.30;100.00;100027.92;105715;1296;25286;-77
2023/03/23 11:24:56;;;;;;;20.40;9.90;;;;;;;23.19;100.00;100032.42;105655;1296;25655;-79
2023/03/23 11:27:26;;;;;;;17.40;9.30;;;;;;;22.86;100.00;100030.75;105132;1298;25333;-75
2023/03/23 11:30:09;;;;;;;24.90;9.90;;;;;;;22.62;100.00;100031.25;105305;1290;25519;-80
2023/03/23 11:32:37;;;;;;;53.00;32.10;;;;;;;22.56;100.00;100032.54;105366;1297;24908;-76
2023/03/23 11:35:11;;;;;;;19.10;10.40;;;;;;;22.62;100.00;100027.79;105495;1292;25281;-75